sensor_id;sensor_type;location;lat;lon;timestamp;pressure;altitude;pressure_sealevel;temperature;humidity
52032;BME280;38044;45.148;39.604;2023-07-08T00:01:14;100118.00;;;25.39;75.46
52032;BME280;38044;45.148;39.604;2023-07-08T00:03:41;100107.81;;;25.36;75.33
52032;BME280;38044;45.148;39.604;2023-07-08T00:06:20;100117.63;;;25.41;75.59
52032;BME280;38044;45.148;39.604;2023-07-08T00:08:46;100118.81;;;25.36;75.57
52032;BME280;38044;45.148;39.604;2023-07-08T00:11:14;100094.44;;;25.35;75.58
52032;BME280;38044;45.148;39.604;2023-07-08T00:13:40;100107.84;;;25.29;75.49
52032;BME280;38044;45.148;39.604;2023-07-08T00:16:14;100110.59;;;25.33;73.97
52032;BME280;38044;45.148;39.604;2023-07-08T00:18:40;100117.25;;;25.35;73.57
52032;BME280;38044;45.148;39.604;2023-07-08T00:21:13;100111.75;;;25.35;73.80
52032;BME280;38044;45.148;39.604;2023-07-08T00:23:50;100119.63;;;25.33;73.82
52032;BME280;38044;45.148;39.604;2023-07-08T00:26:26;100109.44;;;25.30;73.01
52032;BME280;38044;45.148;39.604;2023-07-08T00:28:53;100116.88;;;25.33;72.09
52032;BME280;38044;45.148;39.604;2023-07-08T00:31:20;100118.75;;;25.44;71.82
52032;BME280;38044;45.148;39.604;2023-07-08T00:33:53;100121.50;;;25.44;71.39
52032;BME280;38044;45.148;39.604;2023-07-08T00:36:21;100125.03;;;25.48;72.08
52032;BME280;38044;45.148;39.604;2023-07-08T00:38:48;100132.88;;;25.49;72.50
52032;BME280;38044;45.148;39.604;2023-07-08T00:43:51;100129.81;;;25.40;73.04
52032;BME280;38044;45.148;39.604;2023-07-08T00:51:36;100142.34;;;25.45;73.40
52032;BME280;38044;45.148;39.604;2023-07-08T00:54:04;100134.91;;;25.42;72.52
52032;BME280;38044;45.148;39.604;2023-07-08T00:56:36;100147.84;;;25.45;72.91
52032;BME280;38044;45.148;39.604;2023-07-08T00:59:08;100141.56;;;25.48;72.96
52032;BME280;38044;45.148;39.604;2023-07-08T01:01:39;100137.66;;;25.42;73.26
52032;BME280;38044;45.148;39.604;2023-07-08T01:04:28;100143.53;;;25.44;73.22
52032;BME280;38044;45.148;39.604;2023-07-08T01:06:58;100140.81;;;25.36;74.13
52032;BME280;38044;45.148;39.604;2023-07-08T01:09:28;100147.88;;;25.41;74.38
52032;BME280;38044;45.148;39.604;2023-07-08T01:11:59;100153.41;;;25.34;73.92
52032;BME280;38044;45.148;39.604;2023-07-08T01:14:30;100146.44;;;25.15;75.09
52032;BME280;38044;45.148;39.604;2023-07-08T01:16:57;100140.94;;;25.19;75.50
52032;BME280;38044;45.148;39.604;2023-07-08T01:19:23;100143.28;;;25.13;75.22
52032;BME280;38044;45.148;39.604;2023-07-08T01:22:03;100147.63;;;25.14;74.60
52032;BME280;38044;45.148;39.604;2023-07-08T01:24:31;100150.63;;;25.37;73.05
52032;BME280;38044;45.148;39.604;2023-07-08T01:26:57;100164.38;;;25.45;72.45
52032;BME280;38044;45.148;39.604;2023-07-08T01:29:24;100156.56;;;25.32;72.64
52032;BME280;38044;45.148;39.604;2023-07-08T01:31:49;100181.69;;;25.34;72.31
52032;BME280;38044;45.148;39.604;2023-07-08T01:34:18;100173.84;;;25.36;71.53
52032;BME280;38044;45.148;39.604;2023-07-08T01:36:49;100177.00;;;25.31;72.26
52032;BME280;38044;45.148;39.604;2023-07-08T01:39:19;100178.59;;;25.29;71.35
52032;BME280;38044;45.148;39.604;2023-07-08T01:41:45;100187.28;;;25.20;71.16
52032;BME280;38044;45.148;39.604;2023-07-08T01:44:23;100184.13;;;25.11;71.06
52032;BME280;38044;45.148;39.604;2023-07-08T01:46:50;100181.78;;;25.06;71.25
52032;BME280;38044;45.148;39.604;2023-07-08T01:49:19;100183.78;;;25.02;71.56
52032;BME280;38044;45.148;39.604;2023-07-08T01:51:46;100178.28;;;25.02;71.26
52032;BME280;38044;45.148;39.604;2023-07-08T01:54:13;100174.75;;;25.05;70.79
52032;BME280;38044;45.148;39.604;2023-07-08T01:56:39;100161.78;;;25.05;70.03
52032;BME280;38044;45.148;39.604;2023-07-08T01:59:05;100157.81;;;25.06;71.07
52032;BME280;38044;45.148;39.604;2023-07-08T02:01:30;100158.63;;;25.07;70.90
52032;BME280;38044;45.148;39.604;2023-07-08T02:03:56;100149.66;;;24.88;73.29
52032;BME280;38044;45.148;39.604;2023-07-08T02:06:22;100143.81;;;24.79;73.29
52032;BME280;38044;45.148;39.604;2023-07-08T02:08:48;100123.44;;;24.59;74.47
52032;BME280;38044;45.148;39.604;2023-07-08T02:11:15;100123.00;;;24.78;75.28
52032;BME280;38044;45.148;39.604;2023-07-08T02:13:41;100118.25;;;24.82;74.62
52032;BME280;38044;45.148;39.604;2023-07-08T02:16:07;100128.44;;;24.89;75.01
52032;BME280;38044;45.148;39.604;2023-07-08T02:18:33;100132.38;;;24.88;75.04
52032;BME280;38044;45.148;39.604;2023-07-08T02:20:59;100135.91;;;24.88;74.44
52032;BME280;38044;45.148;39.604;2023-07-08T02:23:25;100130.41;;;24.88;73.84
52032;BME280;38044;45.148;39.604;2023-07-08T02:25:55;100135.47;;;25.01;73.36
52032;BME280;38044;45.148;39.604;2023-07-08T02:28:22;100136.22;;;25.08;73.66
52032;BME280;38044;45.148;39.604;2023-07-08T02:30:48;100130.75;;;25.05;75.89
52032;BME280;38044;45.148;39.604;2023-07-08T02:33:14;100125.31;;;24.87;76.29
52032;BME280;38044;45.148;39.604;2023-07-08T02:35:44;100121.41;;;24.77;75.79
52032;BME280;38044;45.148;39.604;2023-07-08T02:38:18;100116.78;;;24.56;76.88
52032;BME280;38044;45.148;39.604;2023-07-08T02:40:47;100116.75;;;24.67;78.43
52032;BME280;38044;45.148;39.604;2023-07-08T02:43:15;100123.78;;;24.75;75.89
52032;BME280;38044;45.148;39.604;2023-07-08T02:45:41;100114.34;;;24.87;76.63
52032;BME280;38044;45.148;39.604;2023-07-08T02:48:08;100116.28;;;24.90;74.64
52032;BME280;38044;45.148;39.604;2023-07-08T02:50:34;100117.81;;;24.94;73.93
52032;BME280;38044;45.148;39.604;2023-07-08T02:53:00;100120.19;;;24.92;74.99
52032;BME280;38044;45.148;39.604;2023-07-08T02:55:26;100126.88;;;24.91;75.25
52032;BME280;38044;45.148;39.604;2023-07-08T02:57:52;100126.81;;;25.06;73.69
52032;BME280;38044;45.148;39.604;2023-07-08T03:00:18;100128.38;;;25.07;71.97
52032;BME280;38044;45.148;39.604;2023-07-08T03:02:45;100139.41;;;25.00;72.76
52032;BME280;38044;45.148;39.604;2023-07-08T03:05:11;100140.22;;;24.93;72.07
52032;BME280;38044;45.148;39.604;2023-07-08T03:07:37;100149.69;;;24.81;72.58
52032;BME280;38044;45.148;39.604;2023-07-08T03:10:03;100149.69;;;24.74;72.51
52032;BME280;38044;45.148;39.604;2023-07-08T03:12:29;100145.41;;;24.66;72.71
52032;BME280;38044;45.148;39.604;2023-07-08T03:14:55;100134.44;;;24.62;73.38
52032;BME280;38044;45.148;39.604;2023-07-08T03:17:20;100142.66;;;24.62;73.11
52032;BME280;38044;45.148;39.604;2023-07-08T03:19:48;100148.94;;;24.63;73.43
52032;BME280;38044;45.148;39.604;2023-07-08T03:22:14;100145.81;;;24.57;74.04
52032;BME280;38044;45.148;39.604;2023-07-08T03:24:43;100148.19;;;24.59;74.24
52032;BME280;38044;45.148;39.604;2023-07-08T03:27:15;100144.59;;;24.69;74.20
52032;BME280;38044;45.148;39.604;2023-07-08T03:29:41;100148.91;;;24.73;73.85
52032;BME280;38044;45.148;39.604;2023-07-08T03:32:11;100159.88;;;24.81;73.85
52032;BME280;38044;45.148;39.604;2023-07-08T03:34:38;100165.38;;;24.84;73.52
52032;BME280;38044;45.148;39.604;2023-07-08T03:37:04;100156.72;;;24.89;72.07
52032;BME280;38044;45.148;39.604;2023-07-08T03:39:30;100167.69;;;24.89;73.05
52032;BME280;38044;45.148;39.604;2023-07-08T03:41:59;100164.56;;;24.84;73.68
52032;BME280;38044;45.148;39.604;2023-07-08T03:44:25;100175.63;;;24.73;73.98
52032;BME280;38044;45.148;39.604;2023-07-08T03:46:51;100179.50;;;24.83;72.75
52032;BME280;38044;45.148;39.604;2023-07-08T03:49:19;100181.84;;;24.91;72.91
52032;BME280;38044;45.148;39.604;2023-07-08T03:51:48;100177.09;;;25.03;71.67
52032;BME280;38044;45.148;39.604;2023-07-08T03:54:15;100175.56;;;24.91;72.23
52032;BME280;38044;45.148;39.604;2023-07-08T03:56:41;100187.75;;;24.93;72.00
52032;BME280;38044;45.148;39.604;2023-07-08T03:59:07;100192.06;;;24.84;72.86
52032;BME280;38044;45.148;39.604;2023-07-08T04:01:33;100199.16;;;24.81;73.35
52032;BME280;38044;45.148;39.604;2023-07-08T04:03:59;100200.75;;;24.61;74.58
52032;BME280;38044;45.148;39.604;2023-07-08T04:06:26;100206.25;;;24.46;75.20
52032;BME280;38044;45.148;39.604;2023-07-08T04:08:54;100211.75;;;24.39;76.19
52032;BME280;38044;45.148;39.604;2023-07-08T04:11:22;100208.59;;;24.41;76.98
52032;BME280;38044;45.148;39.604;2023-07-08T04:13:49;100200.78;;;24.46;76.11
52032;BME280;38044;45.148;39.604;2023-07-08T04:16:22;100208.63;;;24.52;75.99
52032;BME280;38044;45.148;39.604;2023-07-08T04:18:49;100200.78;;;24.50;77.74
52032;BME280;38044;45.148;39.604;2023-07-08T04:21:19;100195.28;;;24.46;79.55
52032;BME280;38044;45.148;39.604;2023-07-08T04:23:45;100200.38;;;24.52;80.68
52032;BME280;38044;45.148;39.604;2023-07-08T04:26:11;100200.00;;;24.57;81.33
52032;BME280;38044;45.148;39.604;2023-07-08T04:28:37;100196.03;;;24.72;80.26
52032;BME280;38044;45.148;39.604;2023-07-08T04:31:03;100198.38;;;24.77;81.33
52032;BME280;38044;45.148;39.604;2023-07-08T04:33:29;100189.75;;;24.68;82.47
52032;BME280;38044;45.148;39.604;2023-07-08T04:35:55;100189.75;;;24.68;82.63
52032;BME280;38044;45.148;39.604;2023-07-08T04:38:24;100199.13;;;24.92;81.41
52032;BME280;38044;45.148;39.604;2023-07-08T04:40:51;100204.66;;;24.85;82.23
52032;BME280;38044;45.148;39.604;2023-07-08T04:43:18;100215.63;;;24.95;81.17
52032;BME280;38044;45.148;39.604;2023-07-08T04:45:47;100213.69;;;24.85;81.62
52032;BME280;38044;45.148;39.604;2023-07-08T04:48:17;100218.00;;;24.72;83.07
52032;BME280;38044;45.148;39.604;2023-07-08T04:50:48;100227.44;;;24.78;81.92
52032;BME280;38044;45.148;39.604;2023-07-08T04:53:15;100219.59;;;24.73;81.95
52032;BME280;38044;45.148;39.604;2023-07-08T04:55:48;100231.38;;;24.70;82.63
52032;BME280;38044;45.148;39.604;2023-07-08T04:58:15;100231.34;;;24.81;82.24
52032;BME280;38044;45.148;39.604;2023-07-08T05:00:41;100226.22;;;24.97;81.10
52032;BME280;38044;45.148;39.604;2023-07-08T05:03:07;100229.72;;;25.05;83.30
52032;BME280;38044;45.148;39.604;2023-07-08T05:05:33;100213.63;;;25.14;82.62
52032;BME280;38044;45.148;39.604;2023-07-08T05:08:02;100221.47;;;25.19;83.93
52032;BME280;38044;45.148;39.604;2023-07-08T05:10:28;100225.78;;;25.20;83.44
52032;BME280;38044;45.148;39.604;2023-07-08T05:12:54;100231.19;;;25.42;83.15
52032;BME280;38044;45.148;39.604;2023-07-08T05:15:20;100226.84;;;25.48;83.51
52032;BME280;38044;45.148;39.604;2023-07-08T05:17:47;100233.09;;;25.52;82.94
52032;BME280;38044;45.148;39.604;2023-07-08T05:20:14;100220.06;;;25.67;80.79
52032;BME280;38044;45.148;39.604;2023-07-08T05:22:40;100240.78;;;25.93;79.88
52032;BME280;38044;45.148;39.604;2023-07-08T05:25:08;100230.88;;;26.02;78.67
52032;BME280;38044;45.148;39.604;2023-07-08T05:27:34;100218.72;;;25.96;78.69
52032;BME280;38044;45.148;39.604;2023-07-08T05:30:04;100239.41;;;26.22;77.79
52032;BME280;38044;45.148;39.604;2023-07-08T05:32:30;100233.03;;;26.33;76.80
52032;BME280;38044;45.148;39.604;2023-07-08T05:34:56;100235.44;;;26.23;76.68
52032;BME280;38044;45.148;39.604;2023-07-08T05:37:22;100220.59;;;26.10;75.47
52032;BME280;38044;45.148;39.604;2023-07-08T05:39:56;100228.47;;;26.08;76.98
52032;BME280;38044;45.148;39.604;2023-07-08T05:42:25;100229.22;;;26.12;78.33
52032;BME280;38044;45.148;39.604;2023-07-08T05:44:51;100232.03;;;26.05;78.14
52032;BME280;38044;45.148;39.604;2023-07-08T05:47:17;100226.97;;;26.00;77.30
52032;BME280;38044;45.148;39.604;2023-07-08T05:49:43;100223.09;;;25.90;77.66
52032;BME280;38044;45.148;39.604;2023-07-08T05:52:09;100235.97;;;26.04;77.67
52032;BME280;38044;45.148;39.604;2023-07-08T05:54:40;100234.81;;;26.05;75.54
52032;BME280;38044;45.148;39.604;2023-07-08T05:57:09;100234.78;;;26.09;75.36
52032;BME280;38044;45.148;39.604;2023-07-08T05:59:38;100241.06;;;26.09;74.12
52032;BME280;38044;45.148;39.604;2023-07-08T06:02:05;100220.56;;;26.14;74.24
52032;BME280;38044;45.148;39.604;2023-07-08T06:04:31;100229.06;;;26.34;73.36
52032;BME280;38044;45.148;39.604;2023-07-08T06:06:57;100232.53;;;26.45;72.73
52032;BME280;38044;45.148;39.604;2023-07-08T06:09:24;100222.00;;;26.33;72.79
52032;BME280;38044;45.148;39.604;2023-07-08T06:11:49;100231.06;;;26.33;72.52
52032;BME280;38044;45.148;39.604;2023-07-08T06:14:15;100233.03;;;26.33;72.26
52032;BME280;38044;45.148;39.604;2023-07-08T06:16:41;100235.81;;;26.25;73.56
52032;BME280;38044;45.148;39.604;2023-07-08T06:19:08;100235.50;;;26.16;72.70
52032;BME280;38044;45.148;39.604;2023-07-08T06:21:34;100245.72;;;26.19;73.39
52032;BME280;38044;45.148;39.604;2023-07-08T06:24:00;100229.63;;;26.14;72.18
52032;BME280;38044;45.148;39.604;2023-07-08T06:26:26;100238.69;;;26.11;72.44
52032;BME280;38044;45.148;39.604;2023-07-08T06:28:52;100232.47;;;26.00;73.55
52032;BME280;38044;45.148;39.604;2023-07-08T06:31:18;100230.81;;;26.13;72.46
52032;BME280;38044;45.148;39.604;2023-07-08T06:33:44;100239.81;;;26.17;72.40
52032;BME280;38044;45.148;39.604;2023-07-08T06:36:10;100221.28;;;26.25;72.75
52032;BME280;38044;45.148;39.604;2023-07-08T06:38:36;100209.94;;;26.12;73.20
52032;BME280;38044;45.148;39.604;2023-07-08T06:41:01;100219.44;;;26.08;73.57
52032;BME280;38044;45.148;39.604;2023-07-08T06:43:27;100194.59;;;26.15;74.03
52032;BME280;38044;45.148;39.604;2023-07-08T06:45:53;100189.72;;;26.29;74.24
52032;BME280;38044;45.148;39.604;2023-07-08T06:48:19;100194.31;;;26.47;72.99
52032;BME280;38044;45.148;39.604;2023-07-08T06:50:48;100182.50;;;26.50;73.84
52032;BME280;38044;45.148;39.604;2023-07-08T06:53:15;100181.66;;;26.57;73.20
52032;BME280;38044;45.148;39.604;2023-07-08T06:55:43;100192.28;;;26.55;73.68
52032;BME280;38044;45.148;39.604;2023-07-08T06:58:09;100192.75;;;26.46;73.60
52032;BME280;38044;45.148;39.604;2023-07-08T07:00:35;100184.06;;;26.51;74.23
52032;BME280;38044;45.148;39.604;2023-07-08T07:03:00;100180.88;;;26.56;73.96
52032;BME280;38044;45.148;39.604;2023-07-08T07:05:26;100186.97;;;26.74;73.70
52032;BME280;38044;45.148;39.604;2023-07-08T07:07:54;100185.00;;;26.75;74.37
52032;BME280;38044;45.148;39.604;2023-07-08T07:10:22;100179.75;;;26.88;73.81
52032;BME280;38044;45.148;39.604;2023-07-08T07:12:48;100188.25;;;27.01;73.76
52032;BME280;38044;45.148;39.604;2023-07-08T07:15:14;100189.56;;;26.89;74.19
52032;BME280;38044;45.148;39.604;2023-07-08T07:17:39;100191.22;;;26.83;74.83
52032;BME280;38044;45.148;39.604;2023-07-08T07:20:06;100194.75;;;26.83;75.11
52032;BME280;38044;45.148;39.604;2023-07-08T07:22:32;100176.81;;;26.68;75.78
52032;BME280;38044;45.148;39.604;2023-07-08T07:24:58;100175.28;;;26.63;75.68
52032;BME280;38044;45.148;39.604;2023-07-08T07:27:24;100192.59;;;26.64;76.67
52032;BME280;38044;45.148;39.604;2023-07-08T07:29:50;100186.41;;;26.52;77.30
52032;BME280;38044;45.148;39.604;2023-07-08T07:32:19;100197.88;;;26.44;78.29
52032;BME280;38044;45.148;39.604;2023-07-08T07:34:48;100192.00;;;26.42;78.03
52032;BME280;38044;45.148;39.604;2023-07-08T07:37:16;100185.75;;;26.34;77.81
52032;BME280;38044;45.148;39.604;2023-07-08T07:39:42;100182.66;;;26.28;77.89
52032;BME280;38044;45.148;39.604;2023-07-08T07:42:09;100178.72;;;26.29;77.87
52032;BME280;38044;45.148;39.604;2023-07-08T07:44:35;100193.56;;;26.43;78.21
52032;BME280;38044;45.148;39.604;2023-07-08T07:47:02;100184.69;;;26.66;77.17
52032;BME280;38044;45.148;39.604;2023-07-08T07:49:29;100183.84;;;26.72;76.71
52032;BME280;38044;45.148;39.604;2023-07-08T07:51:55;100188.84;;;26.85;75.22
52032;BME280;38044;45.148;39.604;2023-07-08T07:54:21;100195.03;;;26.96;75.44
52032;BME280;38044;45.148;39.604;2023-07-08T07:56:47;100193.28;;;27.09;74.55
52032;BME280;38044;45.148;39.604;2023-07-08T07:59:12;100192.03;;;27.17;73.58
52032;BME280;38044;45.148;39.604;2023-07-08T08:01:38;100181.75;;;27.18;73.05
52032;BME280;38044;45.148;39.604;2023-07-08T08:04:04;100175.75;;;27.27;73.41
52032;BME280;38044;45.148;39.604;2023-07-08T08:06:30;100184.56;;;27.45;72.83
52032;BME280;38044;45.148;39.604;2023-07-08T08:08:56;100167.50;;;27.54;72.39
52032;BME280;38044;45.148;39.604;2023-07-08T08:11:23;100167.91;;;27.52;71.71
52032;BME280;38044;45.148;39.604;2023-07-08T08:13:51;100179.84;;;27.46;71.32
52032;BME280;38044;45.148;39.604;2023-07-08T08:16:17;100172.78;;;27.41;71.22
52032;BME280;38044;45.148;39.604;2023-07-08T08:18:43;100163.69;;;27.44;69.95
52032;BME280;38044;45.148;39.604;2023-07-08T08:21:09;100157.75;;;27.46;70.11
52032;BME280;38044;45.148;39.604;2023-07-08T08:23:34;100165.53;;;27.54;69.04
52032;BME280;38044;45.148;39.604;2023-07-08T08:26:00;100168.53;;;27.63;69.32
52032;BME280;38044;45.148;39.604;2023-07-08T08:28:26;100169.53;;;27.77;69.92
52032;BME280;38044;45.148;39.604;2023-07-08T08:30:52;100166.75;;;27.80;68.55
52032;BME280;38044;45.148;39.604;2023-07-08T08:33:18;100167.59;;;27.74;68.37
52032;BME280;38044;45.148;39.604;2023-07-08T08:35:45;100172.56;;;27.86;67.62
52032;BME280;38044;45.148;39.604;2023-07-08T08:38:11;100166.63;;;27.88;65.08
52032;BME280;38044;45.148;39.604;2023-07-08T08:40:39;100166.56;;;27.91;64.97
52032;BME280;38044;45.148;39.604;2023-07-08T08:43:23;100176.69;;;28.25;65.19
52032;BME280;38044;45.148;39.604;2023-07-08T08:46:04;100180.03;;;28.36;64.90
52032;BME280;38044;45.148;39.604;2023-07-08T08:48:32;100178.66;;;28.24;63.66
52032;BME280;38044;45.148;39.604;2023-07-08T08:51:10;100183.47;;;28.44;63.11
52032;BME280;38044;45.148;39.604;2023-07-08T08:53:38;100173.19;;;28.44;62.89
52032;BME280;38044;45.148;39.604;2023-07-08T08:56:13;100190.88;;;28.50;62.16
52032;BME280;38044;45.148;39.604;2023-07-08T08:58:44;100188.34;;;28.60;62.35
52032;BME280;38044;45.148;39.604;2023-07-08T09:01:13;100177.69;;;28.58;62.45
52032;BME280;38044;45.148;39.604;2023-07-08T09:06:33;100188.13;;;28.70;62.84
52032;BME280;38044;45.148;39.604;2023-07-08T09:09:11;100186.44;;;28.77;62.28
52032;BME280;38044;45.148;39.604;2023-07-08T09:11:57;100170.47;;;28.84;60.54
52032;BME280;38044;45.148;39.604;2023-07-08T09:14:27;100167.09;;;28.96;61.08
52032;BME280;38044;45.148;39.604;2023-07-08T09:17:28;100179.22;;;29.59;59.03
52032;BME280;38044;45.148;39.604;2023-07-08T09:20:13;100167.31;;;29.95;58.29
52032;BME280;38044;45.148;39.604;2023-07-08T09:25:56;100169.56;;;30.62;55.55
52032;BME280;38044;45.148;39.604;2023-07-08T09:28:36;100175.88;;;31.33;53.34
52032;BME280;38044;45.148;39.604;2023-07-08T09:31:06;100172.50;;;31.42;54.14
52032;BME280;38044;45.148;39.604;2023-07-08T09:33:32;100174.34;;;31.96;52.50
52032;BME280;38044;45.148;39.604;2023-07-08T09:35:59;100159.13;;;32.01;51.35
52032;BME280;38044;45.148;39.604;2023-07-08T09:38:26;100165.25;;;31.83;51.72
52032;BME280;38044;45.148;39.604;2023-07-08T09:40:53;100150.31;;;32.15;51.37
52032;BME280;38044;45.148;39.604;2023-07-08T09:43:37;100157.06;;;32.62;49.81
52032;BME280;38044;45.148;39.604;2023-07-08T09:46:04;100157.69;;;33.10;49.16
52032;BME280;38044;45.148;39.604;2023-07-08T09:48:35;100155.75;;;33.19;48.75
52032;BME280;38044;45.148;39.604;2023-07-08T09:51:02;100145.66;;;33.13;48.66
52032;BME280;38044;45.148;39.604;2023-07-08T09:53:29;100149.50;;;33.37;46.69
52032;BME280;38044;45.148;39.604;2023-07-08T09:56:00;100145.88;;;33.59;47.49
52032;BME280;38044;45.148;39.604;2023-07-08T09:58:34;100161.75;;;33.90;46.83
52032;BME280;38044;45.148;39.604;2023-07-08T10:01:15;100158.00;;;33.74;47.28
52032;BME280;38044;45.148;39.604;2023-07-08T10:03:42;100156.53;;;34.19;46.49
52032;BME280;38044;45.148;39.604;2023-07-08T10:06:18;100159.34;;;34.10;46.31
52032;BME280;38044;45.148;39.604;2023-07-08T10:08:47;100150.34;;;34.15;46.35
52032;BME280;38044;45.148;39.604;2023-07-08T10:11:26;100153.72;;;34.01;46.17
52032;BME280;38044;45.148;39.604;2023-07-08T10:13:57;100149.66;;;33.74;48.74
52032;BME280;38044;45.148;39.604;2023-07-08T10:16:28;100139.84;;;33.29;48.79
52032;BME280;38044;45.148;39.604;2023-07-08T10:18:55;100133.84;;;33.00;48.62
52032;BME280;38044;45.148;39.604;2023-07-08T10:27:22;100136.28;;;32.75;50.72
52032;BME280;38044;45.148;39.604;2023-07-08T10:30:19;100146.88;;;32.90;49.30
52032;BME280;38044;45.148;39.604;2023-07-08T10:32:57;100150.59;;;33.09;47.99
52032;BME280;38044;45.148;39.604;2023-07-08T10:35:39;100142.09;;;32.90;48.30
52032;BME280;38044;45.148;39.604;2023-07-08T10:38:51;100144.38;;;32.83;49.70
52032;BME280;38044;45.148;39.604;2023-07-08T10:42:15;100141.84;;;33.19;49.64
52032;BME280;38044;45.148;39.604;2023-07-08T10:44:40;100141.09;;;33.28;48.04
52032;BME280;38044;45.148;39.604;2023-07-08T10:56:07;100149.50;;;33.06;47.80
52032;BME280;38044;45.148;39.604;2023-07-08T10:58:38;100139.81;;;33.20;47.29
52032;BME280;38044;45.148;39.604;2023-07-08T11:06:34;100154.97;;;33.19;47.61
52032;BME280;38044;45.148;39.604;2023-07-08T11:09:07;100158.16;;;33.08;47.07
52032;BME280;38044;45.148;39.604;2023-07-08T11:11:58;100145.88;;;32.74;47.41
52032;BME280;38044;45.148;39.604;2023-07-08T11:14:40;100155.56;;;32.48;48.68
52032;BME280;38044;45.148;39.604;2023-07-08T11:17:41;100150.28;;;32.28;48.38
52032;BME280;38044;45.148;39.604;2023-07-08T11:20:20;100154.94;;;32.31;48.99
52032;BME280;38044;45.148;39.604;2023-07-08T11:22:54;100151.75;;;32.20;48.54
52032;BME280;38044;45.148;39.604;2023-07-08T11:25:25;100154.13;;;32.08;48.83
52032;BME280;38044;45.148;39.604;2023-07-08T11:27:55;100150.34;;;32.02;49.18
52032;BME280;38044;45.148;39.604;2023-07-08T11:30:25;100160.81;;;31.85;49.76
52032;BME280;38044;45.148;39.604;2023-07-08T11:33:08;100163.81;;;31.53;50.44
52032;BME280;38044;45.148;39.604;2023-07-08T11:35:43;100191.19;;;31.12;52.86
52032;BME280;38044;45.148;39.604;2023-07-08T11:38:14;100193.72;;;30.48;55.08
52032;BME280;38044;45.148;39.604;2023-07-08T11:40:51;100190.44;;;29.88;54.56
52032;BME280;38044;45.148;39.604;2023-07-08T11:43:19;100194.44;;;29.51;54.36
52032;BME280;38044;45.148;39.604;2023-07-08T11:45:49;100178.59;;;29.15;55.07
52032;BME280;38044;45.148;39.604;2023-07-08T11:48:28;100186.44;;;29.73;54.98
52032;BME280;38044;45.148;39.604;2023-07-08T11:50:56;100182.50;;;29.54;53.66
52032;BME280;38044;45.148;39.604;2023-07-08T11:56:01;100174.31;;;29.30;55.41
52032;BME280;38044;45.148;39.604;2023-07-08T11:58:50;100173.03;;;29.15;55.14
52032;BME280;38044;45.148;39.604;2023-07-08T12:09:27;100171.38;;;29.37;54.37
52032;BME280;38044;45.148;39.604;2023-07-08T12:11:58;100166.66;;;29.54;53.01
52032;BME280;38044;45.148;39.604;2023-07-08T12:14:25;100176.06;;;29.40;53.01
52032;BME280;38044;45.148;39.604;2023-07-08T12:16:54;100181.72;;;29.53;52.63
52032;BME280;38044;45.148;39.604;2023-07-08T12:19:21;100193.63;;;29.86;51.23
52032;BME280;38044;45.148;39.604;2023-07-08T12:21:51;100180.28;;;29.65;48.75
52032;BME280;38044;45.148;39.604;2023-07-08T12:24:18;100188.53;;;29.49;50.95
52032;BME280;38044;45.148;39.604;2023-07-08T12:26:44;100192.84;;;29.50;50.18
52032;BME280;38044;45.148;39.604;2023-07-08T12:29:13;100189.03;;;29.80;48.60
52032;BME280;38044;45.148;39.604;2023-07-08T12:31:40;100175.91;;;29.48;48.03
52032;BME280;38044;45.148;39.604;2023-07-08T12:34:13;100188.56;;;29.29;48.43
52032;BME280;38044;45.148;39.604;2023-07-08T12:36:41;100182.09;;;28.95;50.03
52032;BME280;38044;45.148;39.604;2023-07-08T12:39:11;100171.69;;;28.83;51.06
52032;BME280;38044;45.148;39.604;2023-07-08T12:41:41;100164.72;;;28.75;51.13
52032;BME280;38044;45.148;39.604;2023-07-08T12:44:19;100174.06;;;28.61;52.61
52032;BME280;38044;45.148;39.604;2023-07-08T12:46:48;100194.97;;;28.42;52.95
52032;BME280;38044;45.148;39.604;2023-07-08T12:49:15;100211.16;;;28.17;53.90
52032;BME280;38044;45.148;39.604;2023-07-08T12:51:43;100244.44;;;27.82;55.01
52032;BME280;38044;45.148;39.604;2023-07-08T12:54:10;100248.09;;;27.07;59.95
52032;BME280;38044;45.148;39.604;2023-07-08T12:56:37;100242.63;;;26.10;61.56
52032;BME280;38044;45.148;39.604;2023-07-08T12:59:04;100216.25;;;25.43;65.16
52032;BME280;38044;45.148;39.604;2023-07-08T13:01:33;100205.03;;;24.83;67.49
52032;BME280;38044;45.148;39.604;2023-07-08T13:04:10;100184.25;;;24.61;67.41
52032;BME280;38044;45.148;39.604;2023-07-08T13:06:37;100175.66;;;24.59;67.18
52032;BME280;38044;45.148;39.604;2023-07-08T13:09:31;100169.75;;;24.42;67.35
52032;BME280;38044;45.148;39.604;2023-07-08T13:12:03;100129.75;;;24.05;68.22
52032;BME280;38044;45.148;39.604;2023-07-08T13:14:29;100120.38;;;23.92;69.98
52032;BME280;38044;45.148;39.604;2023-07-08T13:16:55;100094.88;;;23.74;69.82
52032;BME280;38044;45.148;39.604;2023-07-08T13:19:22;100076.81;;;23.58;69.55
52032;BME280;38044;45.148;39.604;2023-07-08T13:21:50;100055.22;;;23.39;69.80
52032;BME280;38044;45.148;39.604;2023-07-08T13:24:29;100055.63;;;23.41;72.34
52032;BME280;38044;45.148;39.604;2023-07-08T13:26:56;100051.63;;;23.06;72.52
52032;BME280;38044;45.148;39.604;2023-07-08T13:29:22;100038.34;;;23.08;72.87
52032;BME280;38044;45.148;39.604;2023-07-08T13:31:53;100017.97;;;22.95;73.83
52032;BME280;38044;45.148;39.604;2023-07-08T13:34:24;100020.19;;;22.68;75.86
52032;BME280;38044;45.148;39.604;2023-07-08T13:36:51;100007.63;;;22.56;75.07